Time;durP1;ratioP1;P1;durP2;ratioP2;P2;SDS_P1;SDS_P2;PMS_P1;PMS_P2;Temp;Humidity;BMP_temperature;BMP_pressure;BME280_temperature;BME280_humidity;BME280_pressure;Samples;Min_cycle;Max_cycle;Signal;HPM_P1;HPM_P2
2024/01/18 00:02:00;;;;;;;31.40;17.30;;;;;;;-3.76;100.00;99201.25;10422329;28;20052;-72
2024/01/18 00:07:00;;;;;;;26.07;14.60;;;;;;;-3.67;100.00;99202.75;10422587;28;20037;-73
2024/01/18 00:12:01;;;;;;;27.37;13.40;;;;;;;-3.53;100.00;99199.06;10439138;28;20052;-71
2024/01/18 00:17:01;;;;;;;24.87;11.50;;;;;;;-3.28;100.00;99222.72;10435569;28;21538;-73
2024/01/18 00:22:02;;;;;;;23.30;9.80;;;;;;;-3.23;100.00;99209.44;10457334;28;20041;-73
2024/01/18 00:27:02;;;;;;;16.20;8.03;;;;;;;-3.15;100.00;99222.72;10438753;28;20041;-72
2024/01/18 00:32:03;;;;;;;20.47;8.23;;;;;;;-3.24;100.00;99218.56;10437337;28;20081;-73
2024/01/18 00:37:04;;;;;;;17.13;7.63;;;;;;;-3.35;100.00;99233.47;10438057;28;20037;-73
2024/01/18 00:42:04;;;;;;;14.20;7.53;;;;;;;-3.36;100.00;99252.50;10443594;28;20037;-73
2024/01/18 00:47:05;;;;;;;15.77;8.83;;;;;;;-3.60;100.00;99235.03;10413469;28;20127;-73
2024/01/18 00:52:05;;;;;;;12.20;6.90;;;;;;;-3.60;100.00;99261.94;10443867;28;20037;-73
2024/01/18 00:57:06;;;;;;;14.47;8.63;;;;;;;-3.75;100.00;99260.22;10425960;28;20105;-74
2024/01/18 01:02:06;;;;;;;17.73;8.03;;;;;;;-3.82;100.00;99280.91;10425952;28;20045;-74
2024/01/18 01:07:07;;;;;;;19.70;9.03;;;;;;;-3.99;100.00;99260.75;10456056;28;20555;-73
2024/01/18 01:12:10;;;;;;;14.60;7.73;;;;;;;-4.00;100.00;99291.34;10449242;28;20060;-73
2024/01/18 01:17:10;;;;;;;14.40;7.73;;;;;;;-4.11;100.00;99295.44;10413335;28;20090;-73
2024/01/18 01:22:11;;;;;;;20.47;8.63;;;;;;;-4.03;100.00;99308.72;10416977;28;20695;-73
2024/01/18 01:27:11;;;;;;;16.50;8.03;;;;;;;-4.14;100.00;99310.06;10447657;28;20112;-74
2024/01/18 01:32:12;;;;;;;18.77;9.13;;;;;;;-4.16;100.00;99316.69;10435416;28;20037;-74
2024/01/18 01:37:13;;;;;;;17.30;9.83;;;;;;;-4.23;100.00;99327.41;10443323;28;20608;-74
2024/01/18 01:42:14;;;;;;;20.20;10.30;;;;;;;-4.30;100.00;99321.13;10436535;28;20068;-74
2024/01/18 01:47:14;;;;;;;23.17;10.60;;;;;;;-4.37;100.00;99326.47;10428667;28;20037;-74
2024/01/18 01:52:15;;;;;;;20.97;10.77;;;;;;;-4.39;100.00;99327.69;10438704;28;20083;-74
2024/01/18 01:57:16;;;;;;;21.87;9.97;;;;;;;-4.38;100.00;99338.25;10404460;28;20029;-73
2024/01/18 02:02:17;;;;;;;28.50;10.43;;;;;;;-4.72;100.00;99294.16;10430656;28;20049;-74
2024/01/18 02:07:18;;;;;;;19.10;9.47;;;;;;;-4.32;100.00;99356.28;10442953;28;20033;-74
2024/01/18 02:12:18;;;;;;;20.57;9.23;;;;;;;-4.37;100.00;99364.06;10442652;28;20357;-73
2024/01/18 02:17:19;;;;;;;17.67;9.00;;;;;;;-4.45;100.00;99353.47;10443196;28;20053;-74
2024/01/18 02:22:20;;;;;;;16.33;7.20;;;;;;;-4.36;100.00;99362.22;10458936;28;20420;-74
2024/01/18 02:27:20;;;;;;;9.70;4.80;;;;;;;-3.95;100.00;99373.09;10442542;28;20056;-74
2024/01/18 02:32:21;;;;;;;7.20;4.27;;;;;;;-3.50;100.00;99370.81;10457050;28;20048;-74
2024/01/18 02:37:21;;;;;;;10.37;5.60;;;;;;;-3.35;100.00;99359.09;10457695;28;20512;-74
2024/01/18 02:42:22;;;;;;;9.87;4.43;;;;;;;-3.19;100.00;99382.13;10426237;28;20091;-74
2024/01/18 02:47:23;;;;;;;10.57;4.33;;;;;;;-3.35;100.00;99372.53;10435307;28;20040;-73
2024/01/18 02:52:24;;;;;;;8.67;4.20;;;;;;;-3.50;100.00;99373.50;10431661;28;20053;-75
2024/01/18 02:57:24;;;;;;;5.73;3.40;;;;;;;-3.60;100.00;99364.97;10403763;28;20056;-74
2024/01/18 03:02:25;;;;;;;7.93;3.80;;;;;;;-3.58;100.00;99367.47;10278921;23;20051;-74
2024/01/18 03:07:28;;;;;;;8.97;3.90;;;;;;;-3.69;100.00;99358.13;10272211;28;20047;-74
2024/01/18 03:12:29;;;;;;;8.93;3.30;;;;;;;-3.73;100.00;99370.31;10245494;28;20126;-75
2024/01/18 03:17:29;;;;;;;9.47;3.73;;;;;;;-3.78;100.00;99373.59;10268212;28;20043;-76
2024/01/18 03:22:30;;;;;;;7.10;3.80;;;;;;;-3.97;100.00;99358.16;10258461;28;20066;-76
2024/01/18 03:27:30;;;;;;;9.63;3.93;;;;;;;-4.08;100.00;99363.03;10255969;28;20431;-76
2024/01/18 03:32:31;;;;;;;8.57;4.17;;;;;;;-4.13;100.00;99360.13;10281553;28;20043;-76
2024/01/18 03:37:31;;;;;;;8.80;4.17;;;;;;;-4.19;100.00;99370.84;10274759;28;20049;-76
2024/01/18 03:42:31;;;;;;;6.10;4.23;;;;;;;-4.16;100.00;99375.81;10272530;28;21013;-77
2024/01/18 03:47:32;;;;;;;8.77;4.87;;;;;;;-4.08;100.00;99362.22;10276125;28;20410;-75
2024/01/18 03:52:32;;;;;;;10.03;5.40;;;;;;;-4.11;100.00;99351.88;10215219;28;20459;-77
2024/01/18 03:57:33;;;;;;;12.90;5.00;;;;;;;-4.09;100.00;99371.31;10283074;28;20056;-76
2024/01/18 04:02:34;;;;;;;21.37;5.47;;;;;;;-4.17;100.00;99379.53;10280279;28;20120;-76
2024/01/18 04:07:35;;;;;;;23.10;6.43;;;;;;;-4.17;100.00;99417.16;10273135;28;20035;-76
2024/01/18 04:12:36;;;;;;;10.23;5.27;;;;;;;-4.07;100.00;99406.91;10267692;28;20075;-76
2024/01/18 04:17:37;;;;;;;14.57;5.43;;;;;;;-3.83;100.00;99396.72;10280760;28;20131;-75
2024/01/18 04:22:37;;;;;;;15.47;4.83;;;;;;;-3.58;100.00;99419.41;10287691;28;20516;-76
2024/01/18 04:27:38;;;;;;;10.63;4.63;;;;;;;-3.33;100.00;99435.91;10277578;28;20036;-76
2024/01/18 04:32:38;;;;;;;8.77;4.47;;;;;;;-3.10;100.00;99446.38;10264125;28;20039;-76
2024/01/18 04:37:39;;;;;;;5.27;3.17;;;;;;;-2.87;100.00;99429.06;10278692;28;20043;-76
2024/01/18 04:42:39;;;;;;;4.80;2.77;;;;;;;-2.76;100.00;99412.31;10278395;28;20043;-75
2024/01/18 04:47:41;;;;;;;3.00;2.20;;;;;;;-2.62;100.00;99428.50;10280005;28;20082;-75
2024/01/18 04:52:42;;;;;;;6.07;2.20;;;;;;;-2.77;100.00;99412.50;10281303;28;20043;-75
2024/01/18 04:57:43;;;;;;;4.27;2.50;;;;;;;-2.94;100.00;99412.03;10279345;28;20032;-75
2024/01/18 05:02:44;;;;;;;5.37;2.53;;;;;;;-3.14;100.00;99412.81;10252824;28;20038;-75
2024/01/18 05:07:44;;;;;;;6.87;3.00;;;;;;;-3.23;100.00;99419.38;10283131;28;20039;-74
2024/01/18 05:12:46;;;;;;;4.83;2.40;;;;;;;-3.10;100.00;99429.38;10271699;28;20042;-75
2024/01/18 05:17:50;;;;;;;4.93;2.50;;;;;;;-2.96;100.00;99430.25;10281972;28;20063;-75
2024/01/18 05:22:51;;;;;;;4.00;2.17;;;;;;;-3.05;100.00;99419.66;10278186;28;20042;-74
2024/01/18 05:27:51;;;;;;;7.37;2.50;;;;;;;-3.02;100.00;99431.88;10278524;28;20042;-75
2024/01/18 05:32:52;;;;;;;6.30;3.93;;;;;;;-3.16;100.00;99438.25;10277013;28;20031;-75
2024/01/18 05:37:52;;;;;;;5.33;2.37;;;;;;;-3.34;100.00;99444.19;10277408;28;20040;-75
2024/01/18 05:42:53;;;;;;;7.00;2.60;;;;;;;-3.38;100.00;99453.69;10273179;28;20036;-75
2024/01/18 05:47:53;;;;;;;6.93;2.30;;;;;;;-3.43;100.00;99450.75;10289720;28;20050;-75
2024/01/18 05:52:54;;;;;;;5.93;2.10;;;;;;;-3.51;100.00;99463.34;10277517;28;20051;-75
2024/01/18 05:57:54;;;;;;;4.63;2.30;;;;;;;-3.57;100.00;99461.44;10283695;28;20047;-75
2024/01/18 06:02:56;;;;;;;5.07;2.17;;;;;;;-3.70;100.00;99450.56;10265844;28;20078;-75
2024/01/18 06:07:56;;;;;;;6.27;2.50;;;;;;;-3.83;100.00;99472.84;10228545;28;20036;-75
2024/01/18 06:12:58;;;;;;;10.10;3.60;;;;;;;-3.89;100.00;99482.50;10223362;28;20040;-74
2024/01/18 06:18:03;;;;;;;7.27;2.60;;;;;;;-3.88;100.00;99492.25;10222126;28;20051;-74
2024/01/18 06:23:04;;;;;;;;;;;;;;;-3.78;100.00;99499.13;10254427;28;20043;-75
2024/01/18 06:28:04;;;;;;;10.40;2.45;;;;;;;-3.71;100.00;99519.69;10275112;28;20457;-74
2024/01/18 06:33:05;;;;;;;8.73;2.63;;;;;;;-3.58;100.00;99529.72;10260606;28;20466;-74
2024/01/18 06:38:06;;;;;;;5.33;2.70;;;;;;;-3.42;100.00;99533.16;10280597;28;20057;-75
2024/01/18 06:43:06;;;;;;;9.80;2.90;;;;;;;-3.39;100.00;99543.50;10284440;28;20050;-75
2024/01/18 06:48:07;;;;;;;8.03;2.60;;;;;;;-3.45;100.00;99550.53;10276587;28;20595;-74
2024/01/18 06:53:07;;;;;;;6.37;2.70;;;;;;;-3.38;100.00;99556.78;10240890;28;20463;-74
2024/01/18 06:58:08;;;;;;;9.17;3.33;;;;;;;-3.33;100.00;99553.47;10283148;28;20684;-75
2024/01/18 07:03:08;;;;;;;9.67;2.67;;;;;;;-3.17;100.00;99552.34;10273333;28;20039;-72
2024/01/18 07:08:10;;;;;;;10.40;3.40;;;;;;;-3.08;100.00;99552.00;10277562;28;20406;-74
2024/01/18 07:13:10;;;;;;;8.87;3.60;;;;;;;-3.09;100.00;99553.03;10275502;28;20040;-75
2024/01/18 07:18:12;;;;;;;6.33;2.00;;;;;;;-3.52;100.00;99512.78;10277852;28;20442;-75
2024/01/18 07:23:13;;;;;;;6.70;2.20;;;;;;;-3.35;100.00;99577.91;10287139;28;20039;-75
2024/01/18 07:28:14;;;;;;;6.53;2.37;;;;;;;-3.54;100.00;99584.78;10278433;28;20039;-74
2024/01/18 07:33:14;;;;;;;5.07;2.07;;;;;;;-3.59;100.00;99595.31;10277788;28;20040;-74
2024/01/18 07:38:15;;;;;;;7.37;2.13;;;;;;;-3.70;100.00;99601.19;10270271;28;20038;-74
2024/01/18 07:43:15;;;;;;;3.93;2.00;;;;;;;-3.85;100.00;99606.66;10273723;28;20051;-74
2024/01/18 07:48:15;;;;;;;8.17;3.60;;;;;;;-4.01;100.00;99606.88;10261382;28;20039;-75
2024/01/18 07:53:16;;;;;;;11.77;4.53;;;;;;;-4.11;100.00;99620.66;10286824;28;20042;-74
2024/01/18 07:58:16;;;;;;;6.50;3.83;;;;;;;-4.23;100.00;99628.38;10270447;28;20047;-74
2024/01/18 08:03:17;;;;;;;7.63;3.57;;;;;;;-4.22;100.00;99629.19;10289784;28;20038;-74
2024/01/18 08:08:17;;;;;;;8.30;3.60;;;;;;;-3.94;100.00;99630.16;10269994;28;20067;-74
2024/01/18 08:13:18;;;;;;;8.33;3.40;;;;;;;-3.58;100.00;99626.56;10287967;28;20050;-74
2024/01/18 08:18:18;;;;;;;7.17;3.20;;;;;;;-3.39;100.00;99625.09;10271103;28;20055;-73
2024/01/18 08:23:19;;;;;;;4.37;2.30;;;;;;;-3.48;100.00;99600.16;10281641;28;20054;-75
2024/01/18 08:28:19;;;;;;;5.13;2.17;;;;;;;-3.32;100.00;99643.97;10278907;28;20044;-74
2024/01/18 08:33:20;;;;;;;4.57;1.67;;;;;;;-3.40;100.00;99638.72;10279430;28;20446;-72
2024/01/18 08:38:20;;;;;;;5.60;2.77;;;;;;;-3.58;100.00;99648.06;10235180;28;20040;-73
2024/01/18 08:43:26;;;;;;;7.43;3.10;;;;;;;-3.65;100.00;99666.03;10279787;28;20063;-72
2024/01/18 08:48:27;;;;;;;6.55;3.08;;;;;;;-3.70;100.00;99665.75;10281150;28;20106;-73
2024/01/18 08:53:27;;;;;;;4.00;3.20;;;;;;;-3.64;100.00;99681.13;10280912;28;20568;-73
2024/01/18 08:58:28;;;;;;;6.17;3.00;;;;;;;-3.72;100.00;99683.94;10278481;28;20043;-73
2024/01/18 09:03:28;;;;;;;7.50;3.00;;;;;;;-3.72;100.00;99697.38;10235906;28;20040;-73
2024/01/18 09:08:29;;;;;;;6.03;2.20;;;;;;;-3.59;100.00;99708.31;10261234;28;20039;-73
2024/01/18 09:13:29;;;;;;;7.17;2.60;;;;;;;-3.15;100.00;99691.09;10261733;28;20044;-73
2024/01/18 09:18:29;;;;;;;6.50;2.93;;;;;;;-2.77;100.00;99725.81;10274854;28;20039;-73
2024/01/18 09:23:30;;;;;;;2.63;2.03;;;;;;;-2.55;100.00;99733.84;10278117;28;20031;-73
2024/01/18 09:28:30;;;;;;;6.00;2.60;;;;;;;-2.38;100.00;99724.41;10284730;28;20047;-71
2024/01/18 09:33:31;;;;;;;5.80;2.20;;;;;;;-2.21;100.00;99726.78;10280590;28;20047;-72
2024/01/18 09:38:33;;;;;;;5.43;2.63;;;;;;;-2.12;100.00;99736.38;10274555;28;20050;-72
2024/01/18 09:43:35;;;;;;;8.73;3.30;;;;;;;-2.14;100.00;99716.88;10281771;28;20074;-73
2024/01/18 09:48:35;;;;;;;6.63;2.60;;;;;;;-1.99;100.00;99776.91;10269439;28;20065;-72
2024/01/18 09:53:39;;;;;;;8.90;3.17;;;;;;;-1.87;100.00;99771.78;10278758;28;20065;-72
2024/01/18 09:58:39;;;;;;;7.60;2.87;;;;;;;-1.92;100.00;99772.38;10256686;28;20495;-72
2024/01/18 10:03:40;;;;;;;5.70;3.00;;;;;;;-1.72;100.00;99787.81;10285298;28;20034;-73
2024/01/18 10:08:40;;;;;;;5.33;3.77;;;;;;;-1.59;100.00;99793.28;10266816;28;20086;-72
2024/01/18 10:13:54;;;;;;;5.83;2.67;;;;;;;-1.46;100.00;99814.09;10259502;28;20234;-71
2024/01/18 10:19:01;;;;;;;6.10;2.27;;;;;;;-1.34;100.00;99823.28;10243891;28;20134;-72
2024/01/18 10:24:05;;;;;;;6.10;2.17;;;;;;;-1.15;100.00;99835.19;10235339;28;20047;-72
2024/01/18 10:29:08;;;;;;;4.23;1.83;;;;;;;-0.90;100.00;99846.25;10257242;28;20110;-70
2024/01/18 10:34:09;;;;;;;5.50;2.07;;;;;;;-0.44;100.00;99868.97;10259510;28;20051;-72
2024/01/18 10:39:18;;;;;;;3.90;2.40;;;;;;;-0.41;100.00;99871.28;10249834;28;20046;-73
2024/01/18 10:44:19;;;;;;;2.10;1.37;;;;;;;-0.27;100.00;99885.63;10252311;28;20043;-71
2024/01/18 10:49:19;;;;;;;7.40;1.43;;;;;;;0.04;100.00;99894.97;10254618;28;20051;-71
2024/01/18 10:54:20;;;;;;;3.17;1.27;;;;;;;0.72;100.00;99886.50;10245351;28;20075;-71
2024/01/18 10:59:20;;;;;;;3.97;1.50;;;;;;;0.98;100.00;99891.81;10248566;28;20130;-72
2024/01/18 11:04:21;;;;;;;3.30;1.23;;;;;;;0.69;100.00;99898.59;10259562;28;20043;-71
2024/01/18 11:09:26;;;;;;;3.20;1.40;;;;;;;0.41;100.00;99896.16;10255166;28;20039;-71
2024/01/18 11:14:27;;;;;;;5.97;3.10;;;;;;;0.58;100.00;99929.88;10252999;28;20039;-70
2024/01/18 11:19:46;;;;;;;2.00;1.20;;;;;;;1.35;100.00;99935.41;10268476;28;20063;-71
2024/01/18 11:24:46;;;;;;;4.70;1.67;;;;;;;1.45;100.00;99945.81;10253087;28;20173;-71
2024/01/18 11:29:47;;;;;;;3.03;2.13;;;;;;;0.93;100.00;99961.25;10283188;28;20038;-72
2024/01/18 11:34:49;;;;;;;5.20;2.10;;;;;;;0.72;100.00;99959.66;10300848;28;20098;-72
2024/01/18 11:39:50;;;;;;;2.60;2.40;;;;;;;0.45;100.00;99961.56;10306906;28;20058;-72
2024/01/18 11:44:55;;;;;;;3.27;2.97;;;;;;;0.32;100.00;99978.66;10297758;28;20054;-71
2024/01/18 11:49:56;;;;;;;4.77;3.53;;;;;;;0.22;100.00;99972.84;10312988;28;20038;-71
2024/01/18 11:54:57;;;;;;;2.27;2.17;;;;;;;0.26;100.00;99965.97;10299965;28;20050;-72
2024/01/18 11:59:57;;;;;;;5.77;2.90;;;;;;;0.54;100.00;99971.97;10290211;28;20042;-71
2024/01/18 12:04:58;;;;;;;2.00;1.80;;;;;;;0.86;100.00;99985.66;10302622;28;20050;-71
2024/01/18 12:09:59;;;;;;;3.33;1.73;;;;;;;1.32;100.00;99956.72;10298205;28;20039;-73
2024/01/18 12:15:00;;;;;;;2.37;1.30;;;;;;;1.75;100.00;99994.88;10304711;28;20545;-70
2024/01/18 12:20:01;;;;;;;1.88;1.20;;;;;;;1.03;100.00;99863.22;10291572;28;20045;-71
2024/01/18 12:25:02;;;;;;;3.53;1.23;;;;;;;1.84;100.00;100010.91;10296458;28;20078;-71
2024/01/18 12:30:03;;;;;;;1.57;1.40;;;;;;;1.81;100.00;100017.59;10300835;28;20043;-70
2024/01/18 12:35:04;;;;;;;4.53;1.10;;;;;;;1.92;100.00;100029.63;10324855;28;20062;-67
2024/01/18 12:40:08;;;;;;;1.65;0.90;;;;;;;1.83;100.00;100017.38;10299132;28;20043;-70
2024/01/18 12:45:08;;;;;;;1.05;0.80;;;;;;;1.99;100.00;100041.31;10307984;28;20070;-70
2024/01/18 12:50:10;;;;;;;5.57;1.20;;;;;;;2.22;100.00;100048.88;10316850;28;20037;-70
2024/01/18 12:55:10;;;;;;;3.80;0.90;;;;;;;2.26;100.00;100065.56;10297825;28;20090;-70
2024/01/18 13:00:11;;;;;;;5.63;1.00;;;;;;;2.16;100.00;100066.88;10326271;28;20093;-72
2024/01/18 13:05:13;;;;;;;1.00;0.70;;;;;;;2.26;100.00;100081.88;10312943;28;20045;-71
2024/01/18 13:10:14;;;;;;;4.85;0.85;;;;;;;2.71;100.00;100084.44;10326399;28;20353;-70
2024/01/18 13:15:14;;;;;;;0.93;0.70;;;;;;;3.12;100.00;100088.44;10324822;28;20043;-71
2024/01/18 13:20:15;;;;;;;8.27;1.55;;;;;;;3.84;100.00;100094.13;10312551;28;20527;-70
2024/01/18 13:25:15;;;;;;;4.28;0.82;;;;;;;4.51;100.00;100082.28;10334592;28;20508;-71
2024/01/18 13:30:16;;;;;;;2.80;0.60;;;;;;;4.98;100.00;100094.09;10320249;28;20042;-71
2024/01/18 13:35:16;;;;;;;2.33;0.80;;;;;;;4.93;100.00;100087.69;10319328;28;20047;-72
2024/01/18 13:40:17;;;;;;;2.50;1.30;;;;;;;5.20;100.00;100105.22;10313672;28;20054;-69
2024/01/18 13:45:18;;;;;;;1.70;1.17;;;;;;;4.63;100.00;100116.69;10319454;28;20059;-72
2024/01/18 13:50:21;;;;;;;6.25;2.45;;;;;;;3.32;100.00;100135.31;10307951;28;20051;-72
2024/01/18 13:55:21;;;;;;;4.18;3.95;;;;;;;2.52;100.00;100154.19;10320718;28;20046;-73
2024/01/18 14:00:22;;;;;;;6.63;3.97;;;;;;;1.82;100.00;100173.97;10308408;28;20058;-73
2024/01/18 14:05:23;;;;;;;2.97;2.22;;;;;;;1.45;100.00;100180.94;10290875;28;20043;-73
2024/01/18 14:10:23;;;;;;;1.60;1.50;;;;;;;0.70;100.00;100083.63;10287160;28;20038;-72
2024/01/18 14:15:24;;;;;;;4.93;1.67;;;;;;;1.31;100.00;100199.13;10302601;28;20049;-73
2024/01/18 14:20:25;;;;;;;2.93;1.83;;;;;;;1.15;100.00;100203.91;10293706;28;20035;-74
2024/01/18 14:25:25;;;;;;;7.67;1.80;;;;;;;1.11;100.00;100227.06;10315980;28;20044;-73
2024/01/18 14:30:26;;;;;;;2.57;1.60;;;;;;;0.96;100.00;100235.41;10298516;28;20039;-74
2024/01/18 14:35:26;;;;;;;1.80;1.63;;;;;;;1.12;100.00;100236.06;10299868;28;20478;-73
2024/01/18 14:40:27;;;;;;;2.75;1.20;;;;;;;1.40;100.00;100252.91;10292948;28;20553;-70
2024/01/18 14:45:30;;;;;;;5.45;1.73;;;;;;;1.35;100.00;100262.75;10289565;28;20042;-74
2024/01/18 14:50:30;;;;;;;2.97;2.10;;;;;;;1.07;100.00;100265.66;10302248;28;20046;-74
2024/01/18 14:55:35;;;;;;;4.07;1.90;;;;;;;0.73;100.00;100272.91;10298206;28;20129;-72
2024/01/18 15:00:38;;;;;;;3.83;2.17;;;;;;;0.52;100.00;100282.00;10291645;28;20051;-74
2024/01/18 15:05:39;;;;;;;2.50;2.30;;;;;;;0.25;100.00;100303.56;10297278;28;20063;-74
2024/01/18 15:10:39;;;;;;;4.23;2.27;;;;;;;0.05;100.00;100311.56;10292997;28;20039;-73
2024/01/18 15:15:40;;;;;;;3.80;3.03;;;;;;;-0.27;100.00;100321.97;10288933;28;20535;-74
2024/01/18 15:20:40;;;;;;;4.70;2.58;;;;;;;-0.44;100.00;100340.34;10288952;28;20414;-72
2024/01/18 15:25:40;;;;;;;5.50;3.00;;;;;;;-0.54;100.00;100352.53;10292551;28;20407;-72
2024/01/18 15:30:41;;;;;;;7.43;2.23;;;;;;;-0.64;100.00;100358.25;10288416;28;20054;-74
2024/01/18 15:35:41;;;;;;;5.57;2.50;;;;;;;-0.74;100.00;100374.81;10305081;28;20062;-73
2024/01/18 15:40:42;;;;;;;6.27;3.63;;;;;;;-0.85;100.00;100375.31;10287155;28;20542;-72
2024/01/18 15:45:43;;;;;;;8.17;2.87;;;;;;;-0.93;100.00;100391.63;10294726;28;20047;-73
2024/01/18 15:50:43;;;;;;;5.00;2.40;;;;;;;-1.20;100.00;100375.13;10305706;28;20043;-73
2024/01/18 15:55:44;;;;;;;6.10;3.80;;;;;;;-1.12;100.00;100407.41;10297745;28;20053;-73
2024/01/18 16:00:44;;;;;;;11.30;3.83;;;;;;;-1.25;100.00;100410.81;10300866;28;20061;-73
2024/01/18 16:05:45;;;;;;;5.63;2.90;;;;;;;-1.27;100.00;100425.53;10299358;28;20050;-73
2024/01/18 16:10:46;;;;;;;6.70;4.00;;;;;;;-1.39;100.00;100440.53;10307363;28;20104;-73
2024/01/18 16:15:46;;;;;;;8.13;2.97;;;;;;;-1.56;100.00;100446.09;10301992;28;20039;-72
2024/01/18 16:20:47;;;;;;;5.80;3.90;;;;;;;-1.76;100.00;100461.16;10305433;28;20031;-73
2024/01/18 16:25:48;;;;;;;5.53;3.87;;;;;;;-1.92;100.00;100468.41;10306574;28;20038;-73
2024/01/18 16:30:49;;;;;;;9.53;3.80;;;;;;;-1.99;100.00;100472.84;10326617;28;20038;-73
2024/01/18 16:35:49;;;;;;;10.47;5.63;;;;;;;-2.04;100.00;100488.75;10309829;28;20053;-72
2024/01/18 16:40:50;;;;;;;20.77;9.20;;;;;;;-2.08;100.00;100490.13;10304803;28;20039;-73
2024/01/18 16:45:51;;;;;;;24.27;13.73;;;;;;;-2.06;100.00;100504.28;10290975;28;20086;-73
2024/01/18 16:50:51;;;;;;;21.70;11.60;;;;;;;-2.06;100.00;100504.28;10312172;28;20042;-71
2024/01/18 16:55:52;;;;;;;17.23;7.20;;;;;;;-2.12;100.00;100495.03;10309023;28;20047;-71
2024/01/18 17:00:53;;;;;;;29.47;5.47;;;;;;;-1.98;100.00;100520.41;10315303;28;20045;-73
2024/01/18 17:05:54;;;;;;;7.90;4.50;;;;;;;-1.90;100.00;100522.16;10301274;28;20046;-71
2024/01/18 17:10:54;;;;;;;9.30;3.43;;;;;;;-1.87;100.00;100541.53;10308766;28;20049;-72
2024/01/18 17:15:54;;;;;;;9.40;3.40;;;;;;;-1.88;100.00;100530.91;10321412;28;20042;-71
2024/01/18 17:20:55;;;;;;;20.20;4.63;;;;;;;-1.73;100.00;100525.59;10317906;28;20122;-72
2024/01/18 17:25:55;;;;;;;7.57;3.63;;;;;;;-1.54;100.00;100562.03;10294977;28;20043;-72
2024/01/18 17:30:56;;;;;;;5.53;3.57;;;;;;;-1.48;100.00;100556.72;10287769;28;20043;-72
2024/01/18 17:35:56;;;;;;;8.03;2.90;;;;;;;-1.44;100.00;100568.84;10293545;28;20070;-72
2024/01/18 17:40:57;;;;;;;4.87;2.83;;;;;;;-1.33;100.00;100574.81;10325177;28;20101;-72
2024/01/18 17:45:57;;;;;;;5.47;3.33;;;;;;;-1.34;100.00;100583.94;10319186;28;20062;-72
2024/01/18 17:50:58;;;;;;;10.47;3.70;;;;;;;-1.41;100.00;100583.81;10311051;28;20046;-73
2024/01/18 17:56:00;;;;;;;5.30;3.00;;;;;;;-1.58;100.00;100583.13;10312659;28;20054;-72
2024/01/18 18:01:05;;;;;;;8.47;3.73;;;;;;;-1.63;100.00;100591.78;10305827;28;20042;-71
2024/01/18 18:06:06;;;;;;;10.40;3.40;;;;;;;-1.74;100.00;100602.16;10313697;28;20038;-72
2024/01/18 18:11:06;;;;;;;7.90;3.40;;;;;;;-1.83;100.00;100604.91;10309496;28;20047;-72
2024/01/18 18:16:08;;;;;;;7.67;3.40;;;;;;;-1.87;100.00;100611.69;10321041;28;20426;-72
2024/01/18 18:21:08;;;;;;;7.90;3.63;;;;;;;-1.86;100.00;100624.19;10325276;28;20052;-72
2024/01/18 18:26:09;;;;;;;8.83;3.30;;;;;;;-1.84;100.00;100622.16;10317999;28;20379;-73
2024/01/18 18:31:10;;;;;;;9.63;4.20;;;;;;;-1.87;100.00;100632.44;10335112;28;20042;-72
2024/01/18 18:36:11;;;;;;;13.90;5.07;;;;;;;-2.01;100.00;100631.34;10320400;28;20034;-73
2024/01/18 18:41:12;;;;;;;15.30;5.53;;;;;;;-2.01;100.00;100642.13;10314160;28;20062;-73
2024/01/18 18:46:13;;;;;;;12.47;4.63;;;;;;;-2.01;100.00;100647.53;10328162;28;20049;-69
2024/01/18 18:51:13;;;;;;;6.53;4.67;;;;;;;-2.06;100.00;100655.34;10320099;28;20132;-73
2024/01/18 18:56:14;;;;;;;9.60;3.77;;;;;;;-2.04;100.00;100656.00;10319990;28;20077;-73
2024/01/18 19:01:14;;;;;;;11.53;4.23;;;;;;;-2.06;100.00;100663.44;10316597;28;20042;-73
2024/01/18 19:06:15;;;;;;;10.60;3.27;;;;;;;-2.12;100.00;100666.81;10321945;28;20035;-72
2024/01/18 19:11:15;;;;;;;4.53;3.07;;;;;;;-2.12;100.00;100672.22;10319960;28;20567;-73
2024/01/18 19:16:16;;;;;;;9.07;3.37;;;;;;;-2.14;100.00;100682.34;10319832;28;20050;-73
2024/01/18 19:21:16;;;;;;;6.40;2.90;;;;;;;-2.15;100.00;100688.75;10321180;28;20043;-72
2024/01/18 19:26:17;;;;;;;5.17;2.63;;;;;;;-2.03;100.00;100698.13;10320614;28;20051;-73
2024/01/18 19:31:18;;;;;;;8.50;2.50;;;;;;;-1.99;100.00;100701.31;10321733;28;20045;-73
2024/01/18 19:36:18;;;;;;;8.40;3.03;;;;;;;-1.98;100.00;100706.53;10320024;28;20053;-72
2024/01/18 19:41:19;;;;;;;10.33;3.10;;;;;;;-2.01;100.00;100722.25;10322901;28;20133;-73
2024/01/18 19:46:19;;;;;;;8.40;2.77;;;;;;;-2.07;100.00;100734.56;10322159;28;20045;-72
2024/01/18 19:51:20;;;;;;;8.70;3.17;;;;;;;-2.18;100.00;100729.56;10319716;28;20047;-72
2024/01/18 19:56:20;;;;;;;6.00;2.80;;;;;;;-2.09;100.00;100742.84;10317329;28;20082;-73
2024/01/18 20:01:21;;;;;;;6.80;2.77;;;;;;;-2.10;100.00;100748.41;10317357;28;20050;-73
2024/01/18 20:06:21;;;;;;;7.93;2.93;;;;;;;-2.10;100.00;100753.81;10320621;28;20034;-73
2024/01/18 20:11:22;;;;;;;9.87;2.83;;;;;;;-2.08;100.00;100760.69;10307563;28;20058;-73
2024/01/18 20:16:22;;;;;;;12.37;4.17;;;;;;;-2.19;100.00;100750.31;10320366;28;20043;-72
2024/01/18 20:21:23;;;;;;;13.47;5.63;;;;;;;-2.15;100.00;100772.34;10304130;28;20061;-72
2024/01/18 20:26:23;;;;;;;10.30;4.77;;;;;;;-2.22;100.00;100776.78;10317042;28;20053;-73
2024/01/18 20:31:23;;;;;;;15.63;4.33;;;;;;;-2.22;100.00;100782.16;10318391;28;20050;-73
2024/01/18 20:36:24;;;;;;;10.23;3.77;;;;;;;-2.24;100.00;100788.56;10319760;28;20050;-73
2024/01/18 20:41:24;;;;;;;6.30;3.30;;;;;;;-2.31;100.00;100782.19;10321223;28;20042;-73
2024/01/18 20:46:26;;;;;;;11.20;3.70;;;;;;;-2.32;100.00;100785.88;10316288;28;20042;-74
2024/01/18 20:51:27;;;;;;;10.47;4.30;;;;;;;-2.33;100.00;100789.59;10315287;28;20064;-73
2024/01/18 20:56:27;;;;;;;10.50;4.10;;;;;;;-2.39;100.00;100793.00;10314072;28;20039;-73
2024/01/18 21:01:28;;;;;;;14.20;4.17;;;;;;;-2.41;100.00;100805.81;10316718;28;20035;-73
2024/01/18 21:06:28;;;;;;;7.27;2.70;;;;;;;-2.37;100.00;100809.00;10324145;28;20034;-74
2024/01/18 21:11:28;;;;;;;5.80;2.67;;;;;;;-2.38;100.00;100818.94;10320087;28;20097;-72
2024/01/18 21:16:29;;;;;;;7.80;3.07;;;;;;;-2.39;100.00;100817.25;10321040;28;20097;-73
2024/01/18 21:21:29;;;;;;;7.97;3.30;;;;;;;-2.45;100.00;100824.16;10327902;28;20050;-72
2024/01/18 21:26:30;;;;;;;4.30;2.33;;;;;;;-2.56;100.00;100802.97;10299043;28;20047;-73
2024/01/18 21:31:33;;;;;;;4.97;1.80;;;;;;;-2.42;100.00;100839.16;10320619;28;20034;-73
2024/01/18 21:36:36;;;;;;;3.93;2.50;;;;;;;-2.49;100.00;100830.06;10320776;28;20038;-72
2024/01/18 21:41:41;;;;;;;6.80;2.30;;;;;;;-2.42;100.00;100841.84;10298090;28;20065;-73
2024/01/18 21:46:42;;;;;;;4.80;1.83;;;;;;;-2.57;100.00;100830.91;10334546;28;20483;-72
2024/01/18 21:51:43;;;;;;;7.40;1.90;;;;;;;-2.41;100.00;100865.13;10324121;28;20285;-73
2024/01/18 21:56:44;;;;;;;3.90;1.70;;;;;;;-2.35;100.00;100875.22;10318605;28;20042;-73
2024/01/18 22:01:48;;;;;;;4.27;1.33;;;;;;;-2.18;100.00;100884.13;10307712;28;20529;-73
2024/01/18 22:06:48;;;;;;;6.27;1.70;;;;;;;-2.35;100.00;100826.69;10316815;28;20114;-74
2024/01/18 22:11:49;;;;;;;7.17;1.87;;;;;;;-1.79;100.00;100888.78;10321138;28;20038;-73
2024/01/18 22:16:50;;;;;;;3.63;1.40;;;;;;;-1.70;100.00;100892.28;10315856;28;20286;-73
2024/01/18 22:21:51;;;;;;;8.50;1.67;;;;;;;-1.70;100.00;100893.13;10313235;28;20047;-73
2024/01/18 22:26:51;;;;;;;6.80;1.60;;;;;;;-1.68;100.00;100895.66;10334130;28;20038;-73
2024/01/18 22:31:52;;;;;;;9.93;2.07;;;;;;;-1.72;100.00;100915.91;10320906;28;20093;-73
2024/01/18 22:36:52;;;;;;;10.17;2.30;;;;;;;-1.75;100.00;100914.41;10303006;28;20045;-74
2024/01/18 22:41:53;;;;;;;2.53;1.63;;;;;;;-1.89;100.00;100888.97;10315711;28;20046;-70
2024/01/18 22:46:53;;;;;;;5.97;1.70;;;;;;;-1.75;100.00;100900.06;10323228;28;20043;-73
2024/01/18 22:51:54;;;;;;;4.43;1.63;;;;;;;-1.59;100.00;100932.44;10318836;28;20042;-72